createdAt,value
2018-11-04T00:01:12.582Z,69.79
2018-11-04T00:03:41.618Z,70.49
2018-11-04T00:06:10.830Z,71.59
2018-11-04T00:08:39.806Z,71.22
2018-11-04T00:11:09.327Z,70.31
2018-11-04T00:13:38.357Z,71.57
2018-11-04T00:16:07.556Z,72.43
2018-11-04T00:18:36.664Z,71.19
2018-11-04T00:21:05.982Z,71.62
2018-11-04T00:23:35.007Z,71.35
2018-11-04T00:26:04.144Z,71.46
2018-11-04T00:28:33.193Z,71.13
2018-11-04T00:31:02.288Z,71.15
2018-11-04T00:33:31.276Z,71.73
2018-11-04T00:36:00.290Z,72.34
2018-11-04T00:38:29.616Z,71.24
2018-11-04T00:40:58.613Z,70.71
2018-11-04T00:43:27.650Z,70.72
2018-11-04T00:45:56.623Z,74.10
2018-11-04T00:48:25.675Z,73.47
2018-11-04T00:50:54.646Z,71.96
2018-11-04T00:53:23.712Z,73.99
2018-11-04T00:55:55.567Z,73.36
2018-11-04T00:58:25.795Z,71.67
2018-11-04T01:00:55.080Z,72.48
2018-11-04T01:03:24.325Z,70.45
2018-11-04T01:05:53.549Z,69.93
2018-11-04T01:08:22.543Z,71.18
2018-11-04T01:10:51.663Z,71.01
2018-11-04T01:13:20.896Z,72.44
2018-11-04T01:15:49.949Z,72.42
2018-11-04T01:18:19.254Z,72.32
2018-11-04T01:20:48.258Z,72.70
2018-11-04T01:23:17.311Z,72.86
2018-11-04T01:25:46.490Z,72.72
2018-11-04T01:28:15.454Z,72.57
2018-11-04T01:30:44.426Z,72.97
2018-11-04T01:33:13.422Z,73.21
2018-11-04T01:35:42.609Z,73.84
2018-11-04T01:38:11.567Z,72.08
2018-11-04T01:40:40.607Z,73.43
2018-11-04T01:43:09.581Z,72.80
2018-11-04T01:45:39.207Z,72.29
2018-11-04T01:48:08.198Z,71.64
2018-11-04T01:50:37.190Z,71.23
2018-11-04T01:53:06.422Z,70.82
2018-11-04T01:55:35.748Z,69.85
2018-11-04T01:58:04.726Z,69.43
2018-11-04T02:00:33.759Z,69.92
2018-11-04T02:03:02.759Z,71.27
2018-11-04T02:05:32.051Z,69.54
2018-11-04T02:08:01.019Z,69.90
2018-11-04T02:10:30.248Z,69.15
2018-11-04T02:12:59.368Z,70.23
2018-11-04T02:15:28.322Z,69.85
2018-11-04T02:17:57.765Z,71.11
2018-11-04T02:20:27.019Z,70.15
2018-11-04T02:22:56.226Z,69.92
2018-11-04T02:25:25.217Z,70.03
2018-11-04T02:27:54.305Z,70.92
2018-11-04T02:30:23.413Z,71.96
2018-11-04T02:32:52.395Z,72.38
2018-11-04T02:35:21.669Z,73.32
2018-11-04T02:37:50.654Z,71.86
2018-11-04T02:40:19.681Z,71.34
2018-11-04T02:42:48.707Z,72.05
2018-11-04T02:45:18.394Z,71.24
2018-11-04T02:47:47.694Z,73.18
2018-11-04T02:50:17.025Z,71.84
2018-11-04T02:52:45.901Z,71.45
2018-11-04T02:55:15.201Z,72.49
2018-11-04T02:57:44.169Z,72.29
2018-11-04T03:00:14.583Z,71.33
2018-11-04T03:02:43.768Z,72.13
2018-11-04T03:05:12.806Z,72.80
2018-11-04T03:07:42.580Z,72.70
2018-11-04T03:10:12.986Z,75.00
2018-11-04T03:12:42.113Z,71.67
2018-11-04T03:15:11.350Z,72.07
2018-11-04T03:17:40.314Z,72.92
2018-11-04T03:20:09.523Z,72.01
2018-11-04T03:22:38.741Z,71.49
2018-11-04T03:25:08.216Z,70.58
2018-11-04T03:27:37.195Z,70.50
2018-11-04T03:30:07.847Z,71.24
2018-11-04T03:32:36.831Z,71.59
2018-11-04T03:35:05.941Z,72.80
2018-11-04T03:37:35.132Z,71.45
2018-11-04T03:40:04.321Z,73.15
2018-11-04T03:42:33.359Z,73.28
2018-11-04T03:45:02.344Z,73.83
2018-11-04T03:47:31.424Z,72.87
2018-11-04T03:50:00.698Z,73.23
2018-11-04T03:52:29.646Z,73.16
2018-11-04T03:54:58.622Z,74.86
2018-11-04T03:57:27.688Z,73.10
2018-11-04T03:59:56.730Z,71.51
2018-11-04T04:02:25.704Z,72.43
2018-11-04T04:04:54.759Z,72.31
2018-11-04T04:07:23.807Z,70.89
2018-11-04T04:09:52.958Z,71.77
2018-11-04T04:12:21.978Z,72.25
2018-11-04T04:14:51.071Z,70.33
2018-11-04T04:17:20.250Z,73.31
2018-11-04T04:19:49.242Z,73.00
2018-11-04T04:22:18.211Z,74.36
2018-11-04T04:24:47.177Z,74.40
2018-11-04T04:27:16.198Z,73.06
2018-11-04T04:29:45.173Z,73.38
2018-11-04T04:32:14.217Z,73.34
2018-11-04T04:34:43.212Z,71.78
2018-11-04T04:37:12.436Z,71.20
2018-11-04T04:39:41.406Z,72.06
2018-11-04T04:42:10.528Z,72.72
2018-11-04T04:44:39.498Z,71.95
2018-11-04T04:47:08.503Z,73.86
2018-11-04T04:49:37.503Z,72.88
2018-11-04T04:52:06.491Z,70.98
2018-11-04T04:54:35.470Z,73.67
2018-11-04T04:57:04.463Z,71.70
2018-11-04T04:59:33.449Z,71.47
2018-11-04T05:02:02.415Z,71.33
2018-11-04T05:04:31.613Z,71.13
2018-11-04T05:07:00.581Z,72.40
2018-11-04T05:09:29.778Z,72.78
2018-11-04T05:11:58.743Z,71.58
2018-11-04T05:14:27.709Z,70.68
2018-11-04T05:16:56.930Z,71.07
2018-11-04T05:19:25.907Z,71.40
2018-11-04T05:21:54.882Z,71.18
2018-11-04T05:24:23.900Z,71.60
2018-11-04T05:26:52.918Z,74.05
2018-11-04T05:29:21.881Z,73.57
2018-11-04T05:31:51.185Z,72.87
2018-11-04T05:34:20.448Z,73.12
2018-11-04T05:36:49.486Z,72.73
2018-11-04T05:39:18.450Z,71.28
2018-11-04T05:41:47.444Z,71.82
2018-11-04T05:44:16.448Z,71.44
2018-11-04T05:46:45.436Z,70.42
2018-11-04T05:49:14.759Z,72.60
2018-11-04T05:51:44.058Z,73.29
2018-11-04T05:54:13.359Z,72.42
2018-11-04T05:56:42.630Z,73.84
2018-11-04T05:59:11.604Z,71.98
2018-11-04T06:01:40.578Z,71.42
2018-11-04T06:04:09.563Z,71.82
2018-11-04T06:06:38.586Z,71.85
2018-11-04T06:09:09.055Z,72.49
2018-11-04T06:11:38.506Z,72.39
2018-11-04T06:14:08.531Z,73.40
2018-11-04T06:16:37.519Z,72.96
2018-11-04T06:19:06.570Z,72.41
2018-11-04T06:21:35.930Z,70.69
2018-11-04T06:24:05.035Z,71.56
2018-11-04T06:26:34.637Z,72.53
2018-11-04T06:29:03.839Z,70.82
2018-11-04T06:31:32.825Z,70.77
2018-11-04T06:34:02.034Z,74.19
2018-11-04T06:36:31.206Z,73.43
2018-11-04T06:39:00.308Z,74.24
2018-11-04T06:41:29.297Z,73.31
2018-11-04T06:43:58.261Z,71.63
2018-11-04T06:46:27.220Z,73.68
2018-11-04T06:48:56.208Z,73.37
2018-11-04T06:51:25.161Z,71.26
2018-11-04T06:53:54.442Z,73.72
2018-11-04T06:56:23.436Z,73.44
2018-11-04T06:58:52.730Z,71.61
2018-11-04T07:01:21.733Z,72.57
2018-11-04T07:04:08.129Z,73.02
2018-11-04T07:06:37.354Z,75.89
2018-11-04T07:09:08.476Z,75.24
2018-11-04T07:11:37.417Z,74.05
2018-11-04T07:14:06.679Z,73.15
2018-11-04T07:16:35.994Z,74.34
2018-11-04T07:19:05.049Z,73.27
2018-11-04T07:21:34.665Z,73.23
2018-11-04T07:24:04.525Z,72.09
2018-11-04T07:26:33.507Z,74.20
2018-11-04T07:29:02.482Z,75.53
2018-11-04T07:31:31.657Z,74.24
2018-11-04T07:34:00.655Z,72.79
2018-11-04T07:36:29.641Z,73.94
2018-11-04T07:38:58.619Z,75.75
2018-11-04T07:41:27.621Z,77.46
2018-11-04T07:43:56.593Z,74.40
2018-11-04T07:46:25.877Z,76.60
2018-11-04T07:48:54.911Z,74.38
2018-11-04T07:51:24.287Z,75.32
2018-11-04T07:53:53.322Z,73.76
2018-11-04T07:56:22.566Z,73.35
2018-11-04T07:58:51.672Z,74.24
2018-11-04T08:01:20.665Z,75.15
2018-11-04T08:03:49.636Z,73.57
2018-11-04T08:06:18.605Z,74.31
2018-11-04T08:08:47.640Z,75.26
2018-11-04T08:11:16.897Z,75.29
2018-11-04T08:13:45.889Z,75.44
2018-11-04T08:16:14.951Z,73.11
2018-11-04T08:18:43.947Z,72.50
2018-11-04T08:21:12.954Z,72.32
2018-11-04T08:23:41.927Z,74.27
2018-11-04T08:26:11.083Z,75.55
2018-11-04T08:28:40.321Z,75.85
2018-11-04T08:31:09.266Z,75.93
2018-11-04T08:33:38.281Z,75.62
2018-11-04T08:36:07.704Z,76.02
2018-11-04T08:38:36.681Z,76.19
2018-11-04T08:41:05.663Z,76.67
2018-11-04T08:43:34.646Z,75.13
2018-11-04T08:46:03.856Z,74.69
2018-11-04T08:48:32.865Z,75.38
2018-11-04T08:51:01.970Z,74.37
2018-11-04T08:53:31.199Z,74.27
2018-11-04T08:56:00.168Z,75.75
2018-11-04T08:58:29.257Z,72.59
2018-11-04T09:00:58.307Z,78.11
2018-11-04T09:03:27.307Z,77.72
2018-11-04T09:05:56.641Z,74.49
2018-11-04T09:08:25.749Z,74.78
2018-11-04T09:10:54.763Z,77.06
2018-11-04T09:13:24.307Z,75.15
2018-11-04T09:15:53.340Z,75.34
2018-11-04T09:18:22.912Z,75.57
2018-11-04T09:20:51.881Z,76.01
2018-11-04T09:23:21.212Z,77.09
2018-11-04T09:25:50.217Z,76.96
2018-11-04T09:28:19.497Z,77.17
2018-11-04T09:30:48.487Z,74.87
2018-11-04T09:33:17.683Z,75.20
2018-11-04T09:35:46.959Z,75.52
2018-11-04T09:38:15.746Z,75.68
2018-11-04T09:40:44.759Z,75.22
2018-11-04T09:43:14.197Z,77.01
2018-11-04T09:45:43.162Z,75.67
2018-11-04T09:48:12.578Z,74.59
2018-11-04T09:50:41.563Z,73.96
2018-11-04T09:53:10.562Z,74.65
2018-11-04T09:55:40.479Z,76.11
2018-11-04T09:58:10.118Z,74.83
2018-11-04T10:00:39.393Z,73.01
2018-11-04T10:03:08.452Z,73.83
2018-11-04T10:05:37.922Z,75.55
2018-11-04T10:08:07.085Z,74.91
2018-11-04T10:10:36.401Z,75.76
2018-11-04T10:13:05.528Z,74.23
2018-11-04T10:15:35.247Z,73.79
2018-11-04T10:18:04.237Z,73.44
2018-11-04T10:20:33.490Z,73.52
2018-11-04T10:23:02.238Z,72.34
2018-11-04T10:25:31.229Z,73.86
2018-11-04T10:28:00.511Z,74.64
2018-11-04T10:30:30.593Z,74.74
2018-11-04T10:32:59.518Z,72.18
2018-11-04T10:35:28.543Z,74.10
2018-11-04T10:37:57.623Z,72.73
2018-11-04T10:40:27.313Z,74.23
2018-11-04T10:42:56.377Z,72.38
2018-11-04T10:45:25.353Z,71.56
2018-11-04T10:47:54.576Z,71.77
2018-11-04T10:50:23.655Z,70.16
2018-11-04T10:52:52.624Z,71.95
2018-11-04T10:55:21.625Z,72.25
2018-11-04T10:57:51.413Z,71.94
2018-11-04T11:00:25.720Z,74.98
2018-11-04T11:02:54.788Z,75.11
2018-11-04T11:05:24.838Z,76.54
2018-11-04T11:07:53.977Z,76.11
2018-11-04T11:10:22.964Z,74.52
2018-11-04T11:12:52.026Z,73.59
2018-11-04T11:15:21.195Z,72.77
2018-11-04T11:17:50.217Z,73.90
2018-11-04T11:20:19.487Z,73.17
2018-11-04T11:22:48.619Z,73.09
2018-11-04T11:25:17.559Z,75.23
2018-11-04T11:27:46.555Z,73.43
2018-11-04T11:30:15.609Z,72.44
2018-11-04T11:32:44.590Z,72.70
2018-11-04T11:35:13.585Z,74.65
2018-11-04T11:37:42.593Z,73.29
2018-11-04T11:40:11.541Z,73.57
2018-11-04T11:42:40.615Z,74.50
2018-11-04T11:45:10.231Z,76.83
2018-11-04T11:47:39.348Z,74.31
2018-11-04T11:50:08.753Z,74.13
2018-11-04T11:52:38.424Z,74.90
2018-11-04T11:55:07.589Z,76.35
2018-11-04T11:57:36.873Z,73.72
2018-11-04T12:00:08.459Z,71.79
2018-11-04T12:02:38.662Z,70.78
2018-11-04T12:05:07.910Z,70.42
2018-11-04T12:07:36.909Z,73.83
2018-11-04T12:10:09.377Z,72.58
2018-11-04T12:12:38.728Z,72.84
2018-11-04T12:15:10.068Z,73.48
2018-11-04T12:17:39.119Z,72.52
2018-11-04T12:20:09.748Z,70.98
2018-11-04T12:22:38.804Z,70.19
2018-11-04T12:25:09.592Z,72.56
2018-11-04T12:27:38.600Z,71.54
2018-11-04T12:30:10.676Z,73.86
2018-11-04T12:32:40.197Z,72.55
2018-11-04T12:35:10.677Z,75.26
2018-11-04T12:37:39.609Z,76.11
2018-11-04T12:40:10.882Z,73.71
2018-11-04T12:42:40.034Z,75.60
2018-11-04T12:45:10.534Z,73.69
2018-11-04T12:47:39.575Z,74.04
2018-11-04T12:50:10.171Z,74.58
2018-11-04T12:52:39.278Z,73.80
2018-11-04T12:55:08.808Z,75.03
2018-11-04T12:57:37.890Z,74.87
2018-11-04T13:00:11.615Z,76.15
2018-11-04T13:02:40.797Z,77.15
2018-11-04T13:05:10.697Z,74.92
2018-11-04T13:07:39.799Z,73.59
2018-11-04T13:10:11.393Z,76.80
2018-11-04T13:12:40.595Z,75.19
2018-11-04T13:15:11.492Z,74.25
2018-11-04T13:17:40.794Z,74.59
2018-11-04T13:20:09.787Z,73.69
2018-11-04T13:22:39.098Z,72.44
2018-11-04T13:25:08.587Z,72.87
2018-11-04T13:27:37.571Z,75.46
2018-11-04T13:30:09.143Z,74.57
2018-11-04T13:32:38.350Z,73.73
2018-11-04T13:35:07.375Z,71.45
2018-11-04T13:37:36.392Z,76.37
2018-11-04T13:40:08.142Z,75.00
2018-11-04T13:42:37.241Z,75.67
2018-11-04T13:45:07.145Z,76.58
2018-11-04T13:47:36.402Z,74.47
2018-11-04T13:50:07.986Z,75.83
2018-11-04T13:52:37.002Z,74.06
2018-11-04T13:55:06.768Z,73.58
2018-11-04T13:57:35.878Z,72.52
2018-11-04T14:00:06.184Z,74.96
2018-11-04T14:02:35.168Z,73.22
2018-11-04T14:05:04.424Z,73.59
2018-11-04T14:07:33.680Z,74.96
2018-11-04T14:10:02.682Z,74.15
2018-11-04T14:12:31.698Z,73.87
2018-11-04T14:15:00.719Z,72.86
2018-11-04T14:17:29.769Z,75.68
2018-11-04T14:19:59.165Z,75.97
2018-11-04T14:22:28.242Z,73.50
2018-11-04T14:24:57.558Z,72.60
2018-11-04T14:27:26.614Z,72.04
2018-11-04T14:29:55.651Z,73.46
2018-11-04T14:32:24.665Z,74.87
2018-11-04T14:34:53.693Z,73.66
2018-11-04T14:37:22.751Z,73.17
2018-11-04T14:39:51.782Z,73.61
2018-11-04T14:42:20.826Z,74.42
2018-11-04T14:44:49.875Z,73.61
2018-11-04T14:47:19.428Z,73.83
2018-11-04T14:49:48.774Z,72.81
2018-11-04T14:52:17.895Z,73.71
2018-11-04T14:54:46.973Z,75.40
2018-11-04T14:57:16.217Z,74.77
2018-11-04T14:59:45.336Z,76.20
2018-11-04T15:02:14.504Z,77.82
2018-11-04T15:04:43.694Z,77.23
2018-11-04T15:07:12.685Z,75.40
2018-11-04T15:09:41.743Z,76.27
2018-11-04T15:12:10.912Z,76.15
2018-11-04T15:14:40.085Z,77.61
2018-11-04T15:17:09.065Z,75.13
2018-11-04T15:19:38.148Z,72.89
2018-11-04T15:22:07.222Z,74.16
2018-11-04T15:24:36.354Z,72.69
2018-11-04T15:27:05.696Z,74.43
2018-11-04T15:29:35.068Z,73.42
2018-11-04T15:32:04.064Z,72.74
2018-11-04T15:34:33.737Z,75.22
2018-11-04T15:37:02.769Z,77.09
2018-11-04T15:39:32.081Z,78.85
2018-11-04T15:42:01.402Z,76.07
2018-11-04T15:44:30.387Z,75.73
2018-11-04T15:46:59.517Z,76.55
2018-11-04T15:49:28.795Z,74.02
2018-11-04T15:51:58.305Z,77.94
2018-11-04T15:54:27.689Z,75.84
2018-11-04T15:57:00.966Z,76.78
2018-11-04T15:59:30.009Z,78.92
2018-11-04T16:01:59.078Z,81.04
2018-11-04T16:04:28.369Z,79.58
2018-11-04T16:06:57.447Z,77.42
2018-11-04T16:09:26.486Z,79.52
2018-11-04T16:11:55.678Z,79.33
2018-11-04T16:14:24.697Z,78.42
2018-11-04T16:16:54.669Z,80.52
2018-11-04T16:19:23.879Z,78.35
2018-11-04T16:21:52.919Z,78.70
2018-11-04T16:24:22.612Z,78.42
2018-11-04T16:26:51.814Z,80.24
2018-11-04T16:29:21.247Z,77.42
2018-11-04T16:31:50.637Z,76.06
2018-11-04T16:34:19.602Z,76.48
2018-11-04T16:36:48.815Z,77.17
2018-11-04T16:39:18.783Z,78.12
2018-11-04T16:41:48.297Z,79.12
2018-11-04T16:44:19.617Z,77.26
2018-11-04T16:46:48.660Z,78.35
2018-11-04T16:49:17.694Z,80.34
2018-11-04T16:51:46.903Z,79.29
2018-11-04T16:54:16.151Z,77.64
2018-11-04T16:56:45.747Z,78.92
2018-11-04T16:59:14.780Z,78.81
2018-11-04T17:01:43.870Z,77.40
2018-11-04T17:04:12.980Z,79.57
2018-11-04T17:06:41.892Z,77.90
2018-11-04T17:09:11.382Z,78.96
2018-11-04T17:11:40.574Z,79.00
2018-11-04T17:14:09.600Z,80.89
2018-11-04T17:16:38.977Z,80.09
2018-11-04T17:19:08.042Z,79.42
2018-11-04T17:21:37.130Z,78.20
2018-11-04T17:24:06.249Z,78.65
2018-11-04T17:26:35.346Z,78.67
2018-11-04T17:29:04.445Z,77.33
2018-11-04T17:31:33.470Z,76.85
2018-11-04T17:34:02.530Z,77.03
2018-11-04T17:36:31.731Z,78.57
2018-11-04T17:39:00.710Z,76.14
2018-11-04T17:41:29.969Z,76.28
2018-11-04T17:43:59.276Z,75.98
2018-11-04T17:46:28.341Z,75.15
2018-11-04T17:48:57.391Z,78.23
2018-11-04T17:51:26.486Z,79.53
2018-11-04T17:53:55.500Z,80.18
2018-11-04T17:56:24.758Z,79.77
2018-11-04T17:58:54.107Z,79.04
2018-11-04T18:01:23.117Z,79.75
2018-11-04T18:03:52.094Z,77.99
2018-11-04T18:06:21.310Z,78.81
2018-11-04T18:08:50.963Z,77.96
2018-11-04T18:11:20.159Z,76.17
2018-11-04T18:13:49.249Z,75.98
2018-11-04T18:16:18.586Z,75.41
2018-11-04T18:18:47.615Z,76.39
2018-11-04T18:21:16.599Z,78.63
2018-11-04T18:23:45.593Z,79.64
2018-11-04T18:26:14.825Z,77.82
2018-11-04T18:28:43.947Z,77.73
2018-11-04T18:31:13.023Z,78.65
2018-11-04T18:33:42.255Z,78.95
2018-11-04T18:36:11.274Z,79.09
2018-11-04T18:38:40.287Z,79.71
2018-11-04T18:41:09.302Z,77.67
2018-11-04T18:43:38.677Z,77.22
2018-11-04T18:46:07.782Z,76.95
2018-11-04T18:48:37.261Z,77.81
2018-11-04T18:51:06.599Z,80.38
2018-11-04T18:53:35.777Z,79.25
2018-11-04T18:56:05.102Z,76.35
2018-11-04T18:58:34.144Z,79.54
2018-11-04T19:01:03.201Z,79.21
2018-11-04T19:03:32.459Z,80.07
2018-11-04T19:06:02.096Z,80.40
2018-11-04T19:08:31.128Z,78.34
2018-11-04T19:11:00.179Z,78.27
2018-11-04T19:13:29.173Z,81.97
2018-11-04T19:15:58.209Z,79.06
2018-11-04T19:18:27.423Z,76.58
2018-11-04T19:20:56.539Z,77.17
2018-11-04T19:23:26.163Z,77.09
2018-11-04T19:25:55.546Z,77.36
2018-11-04T19:28:24.580Z,76.66
2018-11-04T19:30:53.628Z,75.93
2018-11-04T19:33:22.635Z,76.93
2018-11-04T19:35:52.200Z,76.83
2018-11-04T19:38:21.212Z,75.89
2018-11-04T19:40:50.250Z,76.04
2018-11-04T19:43:19.705Z,76.03
2018-11-04T19:45:50.437Z,78.84
2018-11-04T19:48:19.939Z,78.79
2018-11-04T19:50:50.181Z,77.19
2018-11-04T19:53:19.134Z,77.24
2018-11-04T19:55:48.157Z,78.91
2018-11-04T19:58:17.148Z,78.48
2018-11-04T20:00:46.147Z,78.01
2018-11-04T20:03:15.547Z,77.09
2018-11-04T20:05:44.944Z,77.13
2018-11-04T20:08:13.978Z,78.13
2018-11-04T20:10:43.015Z,78.63
2018-11-04T20:13:17.419Z,75.21
2018-11-04T20:15:46.417Z,76.91
2018-11-04T20:18:20.879Z,78.79
2018-11-04T20:20:49.864Z,79.65
2018-11-04T20:23:18.976Z,75.95
2018-11-04T20:25:53.258Z,75.97
2018-11-04T20:28:22.219Z,77.00
2018-11-04T20:30:51.213Z,75.21
2018-11-04T20:33:20.486Z,76.74
2018-11-04T20:35:49.743Z,78.99
2018-11-04T20:38:18.747Z,77.92
2018-11-04T20:40:53.051Z,77.81
2018-11-04T20:43:22.077Z,76.10
2018-11-04T20:45:53.424Z,81.58
2018-11-04T20:48:28.478Z,80.73
2018-11-04T20:50:58.201Z,82.04
2018-11-04T20:53:28.182Z,82.16
2018-11-04T20:56:02.439Z,82.37
2018-11-04T20:58:32.574Z,79.75
2018-11-04T21:01:02.063Z,79.33
2018-11-04T21:03:31.333Z,81.54
2018-11-04T21:06:00.801Z,80.22
2018-11-04T21:08:31.170Z,81.94
2018-11-04T21:11:00.484Z,78.66
2018-11-04T21:13:30.925Z,78.05
2018-11-04T21:16:00.295Z,78.71
2018-11-04T21:18:29.983Z,78.23
2018-11-04T21:20:59.683Z,80.10
2018-11-04T21:23:29.130Z,81.09
2018-11-04T21:25:58.923Z,81.93
2018-11-04T21:28:29.731Z,81.64
2018-11-04T21:30:59.093Z,79.86
2018-11-04T21:33:28.198Z,81.48
2018-11-04T21:36:00.381Z,80.29
2018-11-04T21:38:30.711Z,79.61
2018-11-04T21:40:59.843Z,81.06
2018-11-04T21:43:29.020Z,80.83
2018-11-04T21:45:57.843Z,82.32
2018-11-04T21:48:27.138Z,81.20
2018-11-04T21:50:56.505Z,82.06
2018-11-04T21:53:25.916Z,80.83
2018-11-04T21:55:55.311Z,80.32
2018-11-04T21:58:24.222Z,79.02
2018-11-04T22:00:53.213Z,78.71
2018-11-04T22:03:22.470Z,81.64
2018-11-04T22:05:51.521Z,81.08
2018-11-04T22:08:20.750Z,80.39
2018-11-04T22:10:49.730Z,78.42
2018-11-04T22:13:18.703Z,80.17
2018-11-04T22:15:47.940Z,79.78
2018-11-04T22:18:16.907Z,79.95
2018-11-04T22:20:46.106Z,78.03
2018-11-04T22:23:15.133Z,80.84
2018-11-04T22:25:44.108Z,80.19
2018-11-04T22:28:13.399Z,81.36
2018-11-04T22:30:45.094Z,83.15
2018-11-04T22:33:14.910Z,80.03
2018-11-04T22:35:44.891Z,78.90
2018-11-04T22:38:13.934Z,79.64
2018-11-04T22:40:42.949Z,79.20
2018-11-04T22:43:12.227Z,81.00
2018-11-04T22:45:41.205Z,81.64
2018-11-04T22:48:10.210Z,83.86
2018-11-04T22:50:39.189Z,80.87
2018-11-04T22:53:08.406Z,79.99
2018-11-04T22:55:37.658Z,77.79
2018-11-04T22:58:09.104Z,80.29
2018-11-04T23:00:41.404Z,80.25
2018-11-04T23:03:10.837Z,79.80
2018-11-04T23:05:39.826Z,79.38
2018-11-04T23:08:09.373Z,80.65
2018-11-04T23:10:38.531Z,78.62
2018-11-04T23:13:07.975Z,79.65
2018-11-04T23:15:36.953Z,82.47
2018-11-04T23:18:05.966Z,79.70
2018-11-04T23:20:36.342Z,78.14
2018-11-04T23:23:05.585Z,78.89
2018-11-04T23:25:34.816Z,79.20
2018-11-04T23:28:03.779Z,78.27
2018-11-04T23:30:32.763Z,81.83
2018-11-04T23:33:02.087Z,77.25
2018-11-04T23:35:31.089Z,77.79
2018-11-04T23:38:00.127Z,78.34
2018-11-04T23:40:29.134Z,78.91
2018-11-04T23:42:58.417Z,78.09
2018-11-04T23:45:27.415Z,77.49
2018-11-04T23:47:56.365Z,77.21
2018-11-04T23:50:25.357Z,75.85
2018-11-04T23:52:54.701Z,78.10
2018-11-04T23:55:23.669Z,78.24
2018-11-04T23:57:52.621Z,77.20
